sensor_id;sensor_type;location;lat;lon;timestamp;temperature;humidity
68804;SHT31;55787;52.678;13.314;2023-03-19T00:00:27;6.49;93.25
68804;SHT31;55787;52.678;13.314;2023-03-19T00:02:54;6.45;93.41
68804;SHT31;55787;52.678;13.314;2023-03-19T00:05:21;6.41;93.55
68804;SHT31;55787;52.678;13.314;2023-03-19T00:07:47;6.41;93.46
68804;SHT31;55787;52.678;13.314;2023-03-19T00:10:14;6.41;93.56
68804;SHT31;55787;52.678;13.314;2023-03-19T00:12:40;6.40;94.05
68804;SHT31;55787;52.678;13.314;2023-03-19T00:15:07;6.40;94.20
68804;SHT31;55787;52.678;13.314;2023-03-19T00:17:40;6.34;93.85
68804;SHT31;55787;52.678;13.314;2023-03-19T00:20:08;6.37;93.71
68804;SHT31;55787;52.678;13.314;2023-03-19T00:22:35;6.32;93.69
68804;SHT31;55787;52.678;13.314;2023-03-19T00:25:01;6.32;93.65
68804;SHT31;55787;52.678;13.314;2023-03-19T00:27:29;6.30;93.61
68804;SHT31;55787;52.678;13.314;2023-03-19T00:29:55;6.28;93.63
68804;SHT31;55787;52.678;13.314;2023-03-19T00:32:22;6.28;93.83
68804;SHT31;55787;52.678;13.314;2023-03-19T00:34:48;6.24;93.86
68804;SHT31;55787;52.678;13.314;2023-03-19T00:37:15;6.25;93.91
68804;SHT31;55787;52.678;13.314;2023-03-19T00:39:42;6.21;93.87
68804;SHT31;55787;52.678;13.314;2023-03-19T00:42:09;6.18;94.18
68804;SHT31;55787;52.678;13.314;2023-03-19T00:44:36;6.16;94.16
68804;SHT31;55787;52.678;13.314;2023-03-19T00:47:02;6.11;94.02
68804;SHT31;55787;52.678;13.314;2023-03-19T00:49:29;6.09;94.22
68804;SHT31;55787;52.678;13.314;2023-03-19T00:51:55;6.07;94.47
68804;SHT31;55787;52.678;13.314;2023-03-19T00:54:22;6.10;94.73
68804;SHT31;55787;52.678;13.314;2023-03-19T00:56:48;6.04;94.44
68804;SHT31;55787;52.678;13.314;2023-03-19T00:59:15;6.02;94.63
68804;SHT31;55787;52.678;13.314;2023-03-19T01:01:42;6.00;94.34
68804;SHT31;55787;52.678;13.314;2023-03-19T01:04:08;5.94;94.37
68804;SHT31;55787;52.678;13.314;2023-03-19T01:06:36;5.92;94.38
68804;SHT31;55787;52.678;13.314;2023-03-19T01:09:03;5.90;94.48
68804;SHT31;55787;52.678;13.314;2023-03-19T01:11:29;5.89;94.45
68804;SHT31;55787;52.678;13.314;2023-03-19T01:13:56;5.87;94.39
68804;SHT31;55787;52.678;13.314;2023-03-19T01:16:22;5.86;94.33
68804;SHT31;55787;52.678;13.314;2023-03-19T01:18:49;5.86;94.46
68804;SHT31;55787;52.678;13.314;2023-03-19T01:21:16;5.87;94.32
68804;SHT31;55787;52.678;13.314;2023-03-19T01:23:43;5.86;94.23
68804;SHT31;55787;52.678;13.314;2023-03-19T01:26:10;5.83;94.27
68804;SHT31;55787;52.678;13.314;2023-03-19T01:28:37;5.82;94.16
68804;SHT31;55787;52.678;13.314;2023-03-19T01:31:05;5.80;94.15
68804;SHT31;55787;52.678;13.314;2023-03-19T01:33:32;5.82;94.05
68804;SHT31;55787;52.678;13.314;2023-03-19T01:35:59;5.80;94.34
68804;SHT31;55787;52.678;13.314;2023-03-19T01:38:29;5.83;94.10
68804;SHT31;55787;52.678;13.314;2023-03-19T01:40:56;5.85;93.87
68804;SHT31;55787;52.678;13.314;2023-03-19T01:43:25;5.86;93.69
68804;SHT31;55787;52.678;13.314;2023-03-19T01:51:04;5.85;93.15
68804;SHT31;55787;52.678;13.314;2023-03-19T01:53:33;5.83;93.05
68804;SHT31;55787;52.678;13.314;2023-03-19T01:56:22;5.83;92.83
68804;SHT31;55787;52.678;13.314;2023-03-19T01:58:55;5.87;92.66
68804;SHT31;55787;52.678;13.314;2023-03-19T02:01:22;5.89;92.66
68804;SHT31;55787;52.678;13.314;2023-03-19T02:03:50;5.92;92.45
68804;SHT31;55787;52.678;13.314;2023-03-19T02:06:18;5.94;92.35
68804;SHT31;55787;52.678;13.314;2023-03-19T02:08:47;5.94;92.20
68804;SHT31;55787;52.678;13.314;2023-03-19T02:11:14;5.90;92.08
68804;SHT31;55787;52.678;13.314;2023-03-19T02:13:42;5.93;92.10
68804;SHT31;55787;52.678;13.314;2023-03-19T02:16:09;5.93;91.92
68804;SHT31;55787;52.678;13.314;2023-03-19T02:18:36;5.97;91.76
68804;SHT31;55787;52.678;13.314;2023-03-19T02:21:04;5.97;91.66
68804;SHT31;55787;52.678;13.314;2023-03-19T02:26:37;6.16;90.88
68804;SHT31;55787;52.678;13.314;2023-03-19T02:29:04;6.20;90.60
68804;SHT31;55787;52.678;13.314;2023-03-19T02:31:31;6.25;90.63
68804;SHT31;55787;52.678;13.314;2023-03-19T02:34:51;6.30;90.42
68804;SHT31;55787;52.678;13.314;2023-03-19T02:36:59;6.42;89.50
68804;SHT31;55787;52.678;13.314;2023-03-19T02:39:33;6.51;88.67
68804;SHT31;55787;52.678;13.314;2023-03-19T02:42:02;6.59;87.90
68804;SHT31;55787;52.678;13.314;2023-03-19T02:44:29;6.65;87.25
68804;SHT31;55787;52.678;13.314;2023-03-19T02:46:56;6.73;86.70
68804;SHT31;55787;52.678;13.314;2023-03-19T02:49:22;6.75;86.48
68804;SHT31;55787;52.678;13.314;2023-03-19T02:51:49;6.78;85.76
68804;SHT31;55787;52.678;13.314;2023-03-19T02:54:16;6.83;85.27
68804;SHT31;55787;52.678;13.314;2023-03-19T02:56:43;6.86;85.02
68804;SHT31;55787;52.678;13.314;2023-03-19T02:59:09;6.85;84.90
68804;SHT31;55787;52.678;13.314;2023-03-19T03:01:36;6.88;84.87
68804;SHT31;55787;52.678;13.314;2023-03-19T03:04:03;6.88;84.02
68804;SHT31;55787;52.678;13.314;2023-03-19T03:06:30;6.86;84.70
68804;SHT31;55787;52.678;13.314;2023-03-19T03:08:57;6.85;84.58
68804;SHT31;55787;52.678;13.314;2023-03-19T03:11:24;6.85;83.99
68804;SHT31;55787;52.678;13.314;2023-03-19T03:13:50;6.85;84.51
68804;SHT31;55787;52.678;13.314;2023-03-19T03:16:20;6.83;84.30
68804;SHT31;55787;52.678;13.314;2023-03-19T03:18:47;6.79;83.91
68804;SHT31;55787;52.678;13.314;2023-03-19T03:21:13;6.82;84.02
68804;SHT31;55787;52.678;13.314;2023-03-19T03:23:40;6.83;83.80
68804;SHT31;55787;52.678;13.314;2023-03-19T03:26:07;6.86;84.32
68804;SHT31;55787;52.678;13.314;2023-03-19T03:28:33;6.83;84.60
68804;SHT31;55787;52.678;13.314;2023-03-19T03:31:00;6.82;84.46
68804;SHT31;55787;52.678;13.314;2023-03-19T03:33:27;6.83;84.45
68804;SHT31;55787;52.678;13.314;2023-03-19T03:35:54;6.86;83.86
68804;SHT31;55787;52.678;13.314;2023-03-19T03:38:22;6.91;83.15
68804;SHT31;55787;52.678;13.314;2023-03-19T03:40:50;6.89;83.05
68804;SHT31;55787;52.678;13.314;2023-03-19T03:43:18;6.88;83.43
68804;SHT31;55787;52.678;13.314;2023-03-19T03:45:47;6.86;83.45
68804;SHT31;55787;52.678;13.314;2023-03-19T03:48:14;6.95;83.39
68804;SHT31;55787;52.678;13.314;2023-03-19T03:50:41;6.93;83.91
68804;SHT31;55787;52.678;13.314;2023-03-19T03:53:08;6.91;83.91
68804;SHT31;55787;52.678;13.314;2023-03-19T03:55:35;6.91;84.13
68804;SHT31;55787;52.678;13.314;2023-03-19T03:58:02;6.86;83.37
68804;SHT31;55787;52.678;13.314;2023-03-19T04:00:29;6.88;83.76
68804;SHT31;55787;52.678;13.314;2023-03-19T04:02:57;6.89;84.98
68804;SHT31;55787;52.678;13.314;2023-03-19T04:05:24;6.88;85.12
68804;SHT31;55787;52.678;13.314;2023-03-19T04:07:51;6.88;85.50
68804;SHT31;55787;52.678;13.314;2023-03-19T04:10:19;6.88;84.94
68804;SHT31;55787;52.678;13.314;2023-03-19T04:12:45;6.85;85.52
68804;SHT31;55787;52.678;13.314;2023-03-19T04:15:13;6.85;85.32
68804;SHT31;55787;52.678;13.314;2023-03-19T04:17:39;6.83;85.73
68804;SHT31;55787;52.678;13.314;2023-03-19T04:20:07;6.83;85.51
68804;SHT31;55787;52.678;13.314;2023-03-19T04:22:34;6.85;85.97
68804;SHT31;55787;52.678;13.314;2023-03-19T04:25:02;6.83;85.28
68804;SHT31;55787;52.678;13.314;2023-03-19T04:27:28;6.81;85.70
68804;SHT31;55787;52.678;13.314;2023-03-19T04:29:55;6.82;86.57
68804;SHT31;55787;52.678;13.314;2023-03-19T04:32:22;6.82;87.25
68804;SHT31;55787;52.678;13.314;2023-03-19T04:34:49;6.85;86.73
68804;SHT31;55787;52.678;13.314;2023-03-19T04:37:15;6.86;87.19
68804;SHT31;55787;52.678;13.314;2023-03-19T04:39:42;6.91;87.29
68804;SHT31;55787;52.678;13.314;2023-03-19T04:42:10;6.95;87.32
68804;SHT31;55787;52.678;13.314;2023-03-19T04:44:37;6.91;88.91
68804;SHT31;55787;52.678;13.314;2023-03-19T04:47:04;6.91;89.87
68804;SHT31;55787;52.678;13.314;2023-03-19T04:49:30;6.85;91.62
68804;SHT31;55787;52.678;13.314;2023-03-19T04:51:57;6.86;90.14
68804;SHT31;55787;52.678;13.314;2023-03-19T04:54:24;6.89;89.50
68804;SHT31;55787;52.678;13.314;2023-03-19T04:56:51;6.85;90.08
68804;SHT31;55787;52.678;13.314;2023-03-19T04:59:18;6.82;90.06
68804;SHT31;55787;52.678;13.314;2023-03-19T05:01:48;6.79;90.42
68804;SHT31;55787;52.678;13.314;2023-03-19T05:04:14;6.73;91.39
68804;SHT31;55787;52.678;13.314;2023-03-19T05:06:41;6.68;91.90
68804;SHT31;55787;52.678;13.314;2023-03-19T05:09:08;6.73;91.38
68804;SHT31;55787;52.678;13.314;2023-03-19T05:11:35;6.72;92.40
68804;SHT31;55787;52.678;13.314;2023-03-19T05:14:01;6.71;92.64
68804;SHT31;55787;52.678;13.314;2023-03-19T05:16:28;6.69;92.52
68804;SHT31;55787;52.678;13.314;2023-03-19T05:18:55;6.62;92.61
68804;SHT31;55787;52.678;13.314;2023-03-19T05:21:22;6.73;92.22
68804;SHT31;55787;52.678;13.314;2023-03-19T05:23:48;6.76;92.65
68804;SHT31;55787;52.678;13.314;2023-03-19T05:26:17;6.79;93.92
68804;SHT31;55787;52.678;13.314;2023-03-19T05:28:44;6.79;94.29
68804;SHT31;55787;52.678;13.314;2023-03-19T05:31:11;6.81;94.06
68804;SHT31;55787;52.678;13.314;2023-03-19T05:33:37;6.85;94.23
68804;SHT31;55787;52.678;13.314;2023-03-19T05:36:04;6.88;94.54
68804;SHT31;55787;52.678;13.314;2023-03-19T05:38:31;6.91;94.43
68804;SHT31;55787;52.678;13.314;2023-03-19T05:41:02;6.89;94.60
68804;SHT31;55787;52.678;13.314;2023-03-19T05:43:29;6.85;95.03
68804;SHT31;55787;52.678;13.314;2023-03-19T05:45:55;6.83;95.18
68804;SHT31;55787;52.678;13.314;2023-03-19T05:48:23;6.88;95.01
68804;SHT31;55787;52.678;13.314;2023-03-19T05:50:51;6.89;95.47
68804;SHT31;55787;52.678;13.314;2023-03-19T05:53:19;6.95;95.30
68804;SHT31;55787;52.678;13.314;2023-03-19T05:55:45;6.99;95.17
68804;SHT31;55787;52.678;13.314;2023-03-19T05:58:14;7.03;95.09
68804;SHT31;55787;52.678;13.314;2023-03-19T06:00:40;7.09;94.93
68804;SHT31;55787;52.678;13.314;2023-03-19T06:03:07;7.02;95.10
68804;SHT31;55787;52.678;13.314;2023-03-19T06:05:34;7.03;95.23
68804;SHT31;55787;52.678;13.314;2023-03-19T06:08:01;7.06;95.52
68804;SHT31;55787;52.678;13.314;2023-03-19T06:10:27;7.03;95.61
68804;SHT31;55787;52.678;13.314;2023-03-19T06:12:54;7.04;95.88
68804;SHT31;55787;52.678;13.314;2023-03-19T06:15:20;7.09;96.16
68804;SHT31;55787;52.678;13.314;2023-03-19T06:17:47;7.16;96.18
68804;SHT31;55787;52.678;13.314;2023-03-19T06:20:13;7.20;96.36
68804;SHT31;55787;52.678;13.314;2023-03-19T06:22:40;7.24;96.46
68804;SHT31;55787;52.678;13.314;2023-03-19T06:25:07;7.27;96.45
68804;SHT31;55787;52.678;13.314;2023-03-19T06:27:33;7.27;96.59
68804;SHT31;55787;52.678;13.314;2023-03-19T06:30:00;7.27;96.80
68804;SHT31;55787;52.678;13.314;2023-03-19T06:32:26;7.33;96.92
68804;SHT31;55787;52.678;13.314;2023-03-19T06:34:53;7.43;96.77
68804;SHT31;55787;52.678;13.314;2023-03-19T06:37:21;7.46;96.58
68804;SHT31;55787;52.678;13.314;2023-03-19T06:39:48;7.50;96.57
68804;SHT31;55787;52.678;13.314;2023-03-19T06:42:15;7.50;96.54
68804;SHT31;55787;52.678;13.314;2023-03-19T06:44:42;7.53;96.94
68804;SHT31;55787;52.678;13.314;2023-03-19T06:47:09;7.64;96.73
68804;SHT31;55787;52.678;13.314;2023-03-19T06:49:36;7.68;96.56
68804;SHT31;55787;52.678;13.314;2023-03-19T06:52:02;7.84;96.32
68804;SHT31;55787;52.678;13.314;2023-03-19T06:54:29;7.82;96.56
68804;SHT31;55787;52.678;13.314;2023-03-19T06:56:57;7.94;96.51
68804;SHT31;55787;52.678;13.314;2023-03-19T06:59:24;7.82;96.94
68804;SHT31;55787;52.678;13.314;2023-03-19T07:01:50;7.84;97.15
68804;SHT31;55787;52.678;13.314;2023-03-19T07:04:18;7.89;97.17
68804;SHT31;55787;52.678;13.314;2023-03-19T07:06:44;7.86;97.23
68804;SHT31;55787;52.678;13.314;2023-03-19T07:09:11;7.92;97.33
68804;SHT31;55787;52.678;13.314;2023-03-19T07:11:38;8.05;97.03
68804;SHT31;55787;52.678;13.314;2023-03-19T07:14:04;8.15;96.93
68804;SHT31;55787;52.678;13.314;2023-03-19T07:16:31;8.02;97.03
68804;SHT31;55787;52.678;13.314;2023-03-19T07:18:58;7.95;97.50
68804;SHT31;55787;52.678;13.314;2023-03-19T07:21:25;7.89;97.90
68804;SHT31;55787;52.678;13.314;2023-03-19T07:23:51;7.86;98.13
68804;SHT31;55787;52.678;13.314;2023-03-19T07:26:18;7.82;98.53
68804;SHT31;55787;52.678;13.314;2023-03-19T07:28:45;7.85;98.37
68804;SHT31;55787;52.678;13.314;2023-03-19T07:31:12;7.86;98.39
68804;SHT31;55787;52.678;13.314;2023-03-19T07:33:38;7.86;98.46
68804;SHT31;55787;52.678;13.314;2023-03-19T07:36:06;7.86;98.47
68804;SHT31;55787;52.678;13.314;2023-03-19T07:38:33;7.86;98.49
68804;SHT31;55787;52.678;13.314;2023-03-19T07:40:59;8.01;98.23
68804;SHT31;55787;52.678;13.314;2023-03-19T07:43:29;8.15;98.08
68804;SHT31;55787;52.678;13.314;2023-03-19T07:45:57;8.09;98.60
68804;SHT31;55787;52.678;13.314;2023-03-19T07:48:24;8.12;98.56
68804;SHT31;55787;52.678;13.314;2023-03-19T07:50:51;8.15;98.61
68804;SHT31;55787;52.678;13.314;2023-03-19T07:53:18;8.13;98.82
68804;SHT31;55787;52.678;13.314;2023-03-19T07:55:45;8.17;98.87
68804;SHT31;55787;52.678;13.314;2023-03-19T07:58:12;8.21;98.89
68804;SHT31;55787;52.678;13.314;2023-03-19T08:00:39;8.26;99.15
68804;SHT31;55787;52.678;13.314;2023-03-19T08:03:05;8.33;99.11
68804;SHT31;55787;52.678;13.314;2023-03-19T08:05:32;8.40;99.04
68804;SHT31;55787;52.678;13.314;2023-03-19T08:07:58;8.47;99.05
68804;SHT31;55787;52.678;13.314;2023-03-19T08:10:25;8.53;99.09
68804;SHT31;55787;52.678;13.314;2023-03-19T08:12:52;8.63;99.06
68804;SHT31;55787;52.678;13.314;2023-03-19T08:15:20;8.80;99.16
68804;SHT31;55787;52.678;13.314;2023-03-19T08:17:46;8.97;98.96
68804;SHT31;55787;52.678;13.314;2023-03-19T08:20:15;9.02;98.79
68804;SHT31;55787;52.678;13.314;2023-03-19T08:22:42;9.04;98.59
68804;SHT31;55787;52.678;13.314;2023-03-19T08:25:09;9.02;98.49
68804;SHT31;55787;52.678;13.314;2023-03-19T08:27:36;8.98;98.46
68804;SHT31;55787;52.678;13.314;2023-03-19T08:30:04;8.95;98.70
68804;SHT31;55787;52.678;13.314;2023-03-19T08:32:31;8.84;98.84
68804;SHT31;55787;52.678;13.314;2023-03-19T08:34:58;8.77;99.46
68804;SHT31;55787;52.678;13.314;2023-03-19T08:37:25;8.77;99.44
68804;SHT31;55787;52.678;13.314;2023-03-19T08:39:52;8.83;99.38
68804;SHT31;55787;52.678;13.314;2023-03-19T08:42:19;8.77;99.32
68804;SHT31;55787;52.678;13.314;2023-03-19T08:44:47;8.77;99.22
68804;SHT31;55787;52.678;13.314;2023-03-19T08:47:13;8.81;99.14
68804;SHT31;55787;52.678;13.314;2023-03-19T08:49:40;8.89;99.04
68804;SHT31;55787;52.678;13.314;2023-03-19T08:52:07;9.16;97.63
68804;SHT31;55787;52.678;13.314;2023-03-19T08:54:34;9.32;96.86
68804;SHT31;55787;52.678;13.314;2023-03-19T08:57:02;9.31;96.96
68804;SHT31;55787;52.678;13.314;2023-03-19T08:59:29;9.22;97.26
68804;SHT31;55787;52.678;13.314;2023-03-19T09:01:59;9.15;97.65
68804;SHT31;55787;52.678;13.314;2023-03-19T09:04:27;9.12;97.90
68804;SHT31;55787;52.678;13.314;2023-03-19T09:06:54;9.22;97.57
68804;SHT31;55787;52.678;13.314;2023-03-19T09:09:23;9.26;97.30
68804;SHT31;55787;52.678;13.314;2023-03-19T09:11:50;9.21;97.79
68804;SHT31;55787;52.678;13.314;2023-03-19T09:14:16;9.15;98.09
68804;SHT31;55787;52.678;13.314;2023-03-19T09:16:45;9.16;98.17
68804;SHT31;55787;52.678;13.314;2023-03-19T09:19:12;9.15;98.35
68804;SHT31;55787;52.678;13.314;2023-03-19T09:21:38;9.33;97.49
68804;SHT31;55787;52.678;13.314;2023-03-19T09:24:05;9.36;96.81
68804;SHT31;55787;52.678;13.314;2023-03-19T09:26:32;9.36;96.44
68804;SHT31;55787;52.678;13.314;2023-03-19T09:28:59;9.29;96.78
68804;SHT31;55787;52.678;13.314;2023-03-19T09:31:25;9.22;96.89
68804;SHT31;55787;52.678;13.314;2023-03-19T09:33:55;9.28;96.69
68804;SHT31;55787;52.678;13.314;2023-03-19T09:36:21;9.26;96.62
68804;SHT31;55787;52.678;13.314;2023-03-19T09:38:48;9.31;96.67
68804;SHT31;55787;52.678;13.314;2023-03-19T09:44:00;9.28;96.98
68804;SHT31;55787;52.678;13.314;2023-03-19T09:49:34;9.39;96.45
68804;SHT31;55787;52.678;13.314;2023-03-19T09:54:46;9.56;95.95
68804;SHT31;55787;52.678;13.314;2023-03-19T09:57:15;9.60;96.03
68804;SHT31;55787;52.678;13.314;2023-03-19T09:59:42;9.70;96.08
68804;SHT31;55787;52.678;13.314;2023-03-19T10:14:33;10.73;93.29
68804;SHT31;55787;52.678;13.314;2023-03-19T10:16:42;10.83;93.11
68804;SHT31;55787;52.678;13.314;2023-03-19T10:19:12;10.97;93.49
68804;SHT31;55787;52.678;13.314;2023-03-19T10:21:45;11.16;93.17
68804;SHT31;55787;52.678;13.314;2023-03-19T10:24:34;11.26;92.46
68804;SHT31;55787;52.678;13.314;2023-03-19T10:27:18;11.26;93.07
68804;SHT31;55787;52.678;13.314;2023-03-19T10:29:45;11.37;92.75
68804;SHT31;55787;52.678;13.314;2023-03-19T10:35:03;11.99;90.59
68804;SHT31;55787;52.678;13.314;2023-03-19T10:37:33;12.13;90.13
68804;SHT31;55787;52.678;13.314;2023-03-19T10:40:00;12.11;91.24
68804;SHT31;55787;52.678;13.314;2023-03-19T10:45:30;12.02;91.88
68804;SHT31;55787;52.678;13.314;2023-03-19T10:47:58;12.05;90.61
68804;SHT31;55787;52.678;13.314;2023-03-19T10:50:51;12.11;91.45
68804;SHT31;55787;52.678;13.314;2023-03-19T10:56:03;12.36;90.61
68804;SHT31;55787;52.678;13.314;2023-03-19T10:58:33;12.53;91.42
68804;SHT31;55787;52.678;13.314;2023-03-19T11:01:06;12.84;90.47
68804;SHT31;55787;52.678;13.314;2023-03-19T11:03:36;13.01;88.19
68804;SHT31;55787;52.678;13.314;2023-03-19T11:08:34;13.34;88.27
68804;SHT31;55787;52.678;13.314;2023-03-19T11:11:02;13.31;87.67
68804;SHT31;55787;52.678;13.314;2023-03-19T11:13:29;13.21;88.03
68804;SHT31;55787;52.678;13.314;2023-03-19T11:15:58;13.28;87.76
68804;SHT31;55787;52.678;13.314;2023-03-19T11:18:34;13.35;86.56
68804;SHT31;55787;52.678;13.314;2023-03-19T11:21:21;13.28;88.15
68804;SHT31;55787;52.678;13.314;2023-03-19T11:23:57;13.07;88.78
68804;SHT31;55787;52.678;13.314;2023-03-19T11:26:24;12.97;88.72
68804;SHT31;55787;52.678;13.314;2023-03-19T11:29:00;13.01;87.88
68804;SHT31;55787;52.678;13.314;2023-03-19T11:31:33;12.95;88.70
68804;SHT31;55787;52.678;13.314;2023-03-19T11:34:24;12.95;88.65
68804;SHT31;55787;52.678;13.314;2023-03-19T11:39:59;13.05;88.56
68804;SHT31;55787;52.678;13.314;2023-03-19T11:48:01;13.07;89.23
68804;SHT31;55787;52.678;13.314;2023-03-19T11:56:42;13.43;86.84
68804;SHT31;55787;52.678;13.314;2023-03-19T12:07:54;13.69;85.78
68804;SHT31;55787;52.678;13.314;2023-03-19T12:15:55;13.48;86.66
68804;SHT31;55787;52.678;13.314;2023-03-19T12:21:27;13.32;86.33
68804;SHT31;55787;52.678;13.314;2023-03-19T12:24:47;13.55;86.64
68804;SHT31;55787;52.678;13.314;2023-03-19T12:32:50;13.72;84.13
68804;SHT31;55787;52.678;13.314;2023-03-19T12:35:31;14.67;82.08
68804;SHT31;55787;52.678;13.314;2023-03-19T12:40:53;15.82;77.45
68804;SHT31;55787;52.678;13.314;2023-03-19T12:46:27;17.46;73.97
68804;SHT31;55787;52.678;13.314;2023-03-19T12:49:18;18.31;68.20
68804;SHT31;55787;52.678;13.314;2023-03-19T12:51:53;18.57;66.67
68804;SHT31;55787;52.678;13.314;2023-03-19T12:54:28;18.50;66.05
68804;SHT31;55787;52.678;13.314;2023-03-19T12:57:07;18.89;64.71
68804;SHT31;55787;52.678;13.314;2023-03-19T13:02:41;18.76;64.11
68804;SHT31;55787;52.678;13.314;2023-03-19T13:06:02;19.19;64.86
68804;SHT31;55787;52.678;13.314;2023-03-19T13:11:02;19.39;62.13
68804;SHT31;55787;52.678;13.314;2023-03-19T13:13:40;19.51;61.09
68804;SHT31;55787;52.678;13.314;2023-03-19T13:21:45;18.18;62.85
68804;SHT31;55787;52.678;13.314;2023-03-19T13:24:28;17.82;63.98
68804;SHT31;55787;52.678;13.314;2023-03-19T13:26:57;18.00;64.45
68804;SHT31;55787;52.678;13.314;2023-03-19T13:29:26;18.20;64.29
68804;SHT31;55787;52.678;13.314;2023-03-19T13:32:25;17.96;65.28
68804;SHT31;55787;52.678;13.314;2023-03-19T13:35:27;18.13;64.67
68804;SHT31;55787;52.678;13.314;2023-03-19T13:51:33;16.77;70.21
68804;SHT31;55787;52.678;13.314;2023-03-19T13:59:34;17.12;69.02
68804;SHT31;55787;52.678;13.314;2023-03-19T14:05:02;18.30;63.95
68804;SHT31;55787;52.678;13.314;2023-03-19T14:07:34;18.31;64.52
68804;SHT31;55787;52.678;13.314;2023-03-19T14:10:31;18.27;64.68
68804;SHT31;55787;52.678;13.314;2023-03-19T14:13:20;18.68;63.13
68804;SHT31;55787;52.678;13.314;2023-03-19T14:15:50;18.78;61.74
68804;SHT31;55787;52.678;13.314;2023-03-19T14:18:20;18.79;63.53
68804;SHT31;55787;52.678;13.314;2023-03-19T14:21:04;18.95;61.27
68804;SHT31;55787;52.678;13.314;2023-03-19T14:23:39;18.62;62.18
68804;SHT31;55787;52.678;13.314;2023-03-19T14:26:14;18.68;63.33
68804;SHT31;55787;52.678;13.314;2023-03-19T14:29:01;18.52;64.73
68804;SHT31;55787;52.678;13.314;2023-03-19T14:31:48;17.35;64.73
68804;SHT31;55787;52.678;13.314;2023-03-19T14:37:19;18.43;65.99
68804;SHT31;55787;52.678;13.314;2023-03-19T14:39:57;18.96;60.25
68804;SHT31;55787;52.678;13.314;2023-03-19T14:42:29;18.23;63.05
68804;SHT31;55787;52.678;13.314;2023-03-19T14:45:19;17.85;63.27
68804;SHT31;55787;52.678;13.314;2023-03-19T14:47:54;18.20;63.16
68804;SHT31;55787;52.678;13.314;2023-03-19T14:56:22;17.48;63.62
68804;SHT31;55787;52.678;13.314;2023-03-19T14:58:55;18.09;63.52
68804;SHT31;55787;52.678;13.314;2023-03-19T15:01:23;18.17;63.23
68804;SHT31;55787;52.678;13.314;2023-03-19T15:03:55;17.71;62.63
68804;SHT31;55787;52.678;13.314;2023-03-19T15:06:22;17.94;62.99
68804;SHT31;55787;52.678;13.314;2023-03-19T15:08:49;17.25;64.20
68804;SHT31;55787;52.678;13.314;2023-03-19T15:11:54;17.53;64.94
68804;SHT31;55787;52.678;13.314;2023-03-19T15:17:30;16.94;65.49
68804;SHT31;55787;52.678;13.314;2023-03-19T15:19:59;17.07;66.67
68804;SHT31;55787;52.678;13.314;2023-03-19T15:22:31;17.14;65.82
68804;SHT31;55787;52.678;13.314;2023-03-19T15:25:12;17.04;66.65
68804;SHT31;55787;52.678;13.314;2023-03-19T15:27:41;16.95;66.50
68804;SHT31;55787;52.678;13.314;2023-03-19T15:30:24;16.83;68.33
68804;SHT31;55787;52.678;13.314;2023-03-19T15:32:54;16.79;66.15
68804;SHT31;55787;52.678;13.314;2023-03-19T15:35:40;16.55;67.75
68804;SHT31;55787;52.678;13.314;2023-03-19T15:38:08;16.38;69.37
68804;SHT31;55787;52.678;13.314;2023-03-19T15:40:36;16.23;72.21
68804;SHT31;55787;52.678;13.314;2023-03-19T15:43:03;16.15;72.31
68804;SHT31;55787;52.678;13.314;2023-03-19T15:45:31;16.02;72.50
68804;SHT31;55787;52.678;13.314;2023-03-19T15:48:10;15.94;73.44
68804;SHT31;55787;52.678;13.314;2023-03-19T15:50:43;15.88;73.07
68804;SHT31;55787;52.678;13.314;2023-03-19T15:53:14;15.81;75.31
68804;SHT31;55787;52.678;13.314;2023-03-19T15:55:42;15.77;74.72
68804;SHT31;55787;52.678;13.314;2023-03-19T15:58:28;15.74;76.02
68804;SHT31;55787;52.678;13.314;2023-03-19T16:00:58;15.65;77.00
68804;SHT31;55787;52.678;13.314;2023-03-19T16:03:31;15.60;76.07
68804;SHT31;55787;52.678;13.314;2023-03-19T16:06:04;15.55;73.78
68804;SHT31;55787;52.678;13.314;2023-03-19T16:08:32;15.47;76.24
68804;SHT31;55787;52.678;13.314;2023-03-19T16:11:12;15.39;77.47
68804;SHT31;55787;52.678;13.314;2023-03-19T16:13:45;15.32;78.18
68804;SHT31;55787;52.678;13.314;2023-03-19T16:16:21;15.20;78.83
68804;SHT31;55787;52.678;13.314;2023-03-19T16:18:54;15.16;79.66
68804;SHT31;55787;52.678;13.314;2023-03-19T16:21:39;14.99;80.88
68804;SHT31;55787;52.678;13.314;2023-03-19T16:24:13;14.83;81.54
68804;SHT31;55787;52.678;13.314;2023-03-19T16:26:43;14.73;82.15
68804;SHT31;55787;52.678;13.314;2023-03-19T16:31:49;14.60;81.87
68804;SHT31;55787;52.678;13.314;2023-03-19T16:42:44;14.17;83.11
68804;SHT31;55787;52.678;13.314;2023-03-19T16:47:45;13.91;84.77
68804;SHT31;55787;52.678;13.314;2023-03-19T16:50:12;13.76;84.92
68804;SHT31;55787;52.678;13.314;2023-03-19T16:52:41;13.62;85.04
68804;SHT31;55787;52.678;13.314;2023-03-19T16:55:22;13.45;85.74
68804;SHT31;55787;52.678;13.314;2023-03-19T16:58:11;13.28;86.27
68804;SHT31;55787;52.678;13.314;2023-03-19T17:00:40;13.15;86.40
68804;SHT31;55787;52.678;13.314;2023-03-19T17:03:12;13.05;86.77
68804;SHT31;55787;52.678;13.314;2023-03-19T17:05:39;12.93;87.07
68804;SHT31;55787;52.678;13.314;2023-03-19T17:08:05;12.80;87.47
68804;SHT31;55787;52.678;13.314;2023-03-19T17:10:33;12.67;87.89
68804;SHT31;55787;52.678;13.314;2023-03-19T17:13:01;12.54;88.20
68804;SHT31;55787;52.678;13.314;2023-03-19T17:15:32;12.47;88.33
68804;SHT31;55787;52.678;13.314;2023-03-19T17:18:03;12.32;88.03
68804;SHT31;55787;52.678;13.314;2023-03-19T17:20:33;12.18;88.72
68804;SHT31;55787;52.678;13.314;2023-03-19T17:23:01;12.08;88.83
68804;SHT31;55787;52.678;13.314;2023-03-19T17:25:27;11.96;88.97
68804;SHT31;55787;52.678;13.314;2023-03-19T17:27:54;11.82;89.42
68804;SHT31;55787;52.678;13.314;2023-03-19T17:30:21;11.68;89.62
68804;SHT31;55787;52.678;13.314;2023-03-19T17:32:47;11.57;90.07
68804;SHT31;55787;52.678;13.314;2023-03-19T17:35:17;11.51;90.29
68804;SHT31;55787;52.678;13.314;2023-03-19T17:37:45;11.38;90.65
68804;SHT31;55787;52.678;13.314;2023-03-19T17:40:19;11.28;90.29
68804;SHT31;55787;52.678;13.314;2023-03-19T17:42:48;11.20;90.82
68804;SHT31;55787;52.678;13.314;2023-03-19T17:45:16;11.13;90.95
68804;SHT31;55787;52.678;13.314;2023-03-19T17:47:45;11.03;90.78
68804;SHT31;55787;52.678;13.314;2023-03-19T17:50:19;10.93;90.82
68804;SHT31;55787;52.678;13.314;2023-03-19T17:52:47;10.85;91.21
68804;SHT31;55787;52.678;13.314;2023-03-19T17:55:25;10.76;91.87
68804;SHT31;55787;52.678;13.314;2023-03-19T17:57:52;10.73;92.00
68804;SHT31;55787;52.678;13.314;2023-03-19T18:00:21;10.65;91.82
68804;SHT31;55787;52.678;13.314;2023-03-19T18:02:51;10.65;91.88